New Orleans, Louisiana
Traffic Map
Current Weather Conditions
New Orleans, Louisiana
Clear
Clear
35°
Feels Like: 39°
Wind Chill: 35° Ceiling: Unl
Heat Index: 39° Visibility: mi
Dew Point: 22° Wind: 9mph
Humidity: 47% Direction: 220° (SW)
Pressure: 30.02in Gusts: 0mph
Raw Report DataK7N0 032015Z AUTO 22008KT 180V240 CLR 35/22 A3002 RMK AO1
Traffic Incident Summary
Active as of:
Severity:
Category:
InformationThere was an issue retrieving the traffic information for this location. Please try a different location or try again shortly.
Advertisements
Track Severe Weather on mobile